Current | Forecast
Updated: 8:00 AM JST on May 28, 2018
Observed at Nagasaki Airport, Japan
Temperature 70°F
Humidity 94%
Dew Point 68°F
Wind SSE at 5 mph
Pressure 29.83 in (Rising)
Conditions Mostly Cloudy
Visibility 6.2 miles
UV 2 out of 16
Clouds (FEW) : 800 ft
Scattered Clouds (SCT) : 6000 ft
Mostly Cloudy (BKN) : 9000 ft
Yesterday's Maximum 81°F
Yesterday's Minimum 68°F approx.
Yesterday's Cooling Degree Days 9 approx.
Sunrise5:13 AM JST
Sunset7:20 PM JST
Moon Rise6:01 PM JST
Moon Set4:26 AM JST
Moon PhaseMoon Phase
Waxing Gibbous
Raw METARMETAR RJFU 272300Z 16004KT 9999 FEW008 SCT060 BKN090 21/20 Q1010


Monday
. High: 75° F.
Tuesday
. High: 77° F.
Wednesday
. High: 71° F.
Thursday
. High: 71° F.
Friday
. High: 66° F.
Saturday
. High: 75° F.
Sunday
. High: 78° F.
Monday
. High: 80° F.

Units: English | Metric

Find the Weather for any City, State or Zipcode, or Country:

U.S. State List | Severe Weather | Tropical Storms | Ski Conditions
United States | Canada | Central America | South America | Asia | Europe | Australia | Africa | Islands

Weather Underground

© Copyright 2018
The Weather Company, LLC